YPPHYPJT

Guest
Details From YPPH - Perth
To YPJT - Jandakot
Flight Number -
Tags generated
Created
Modified
Stats Distance 11 nm / 20 km
Max Altitude 100 ft / 30 m
Waypoints 3
Social Downloads 8
Likes 0
Share VATSIM

Download

Looking for another format? Having issues loading an existing format? Contact us
Advertisement - Login to hide

Notes

Basic altitude profile: - Ascent Rate: 2500ft/min - Ascent Speed: 250kts - Cruise Altitude: 35000ft - Cruise Speed: 420kts - Descent Rate: 1500ft/min - Descent Speed: 250kts Options: - Use NATs: yes - Use PACOTS: yes - Use low airways: yes - Use high airways: yes

Route

YPPH PH YPJT

ID Type Via Altitude (ft/m) Position (lat/lon) Dist (leg/tot) Name
O YPPH APT - 0 / 0 -31.93967 / 115.96661 - / 0 nm Perth
PH VOR - 100 / 30 -31.94500 / 115.95917 0 / 0 nm PERTH VOR-DME
O YPJT APT - 0 / 0 -32.09888 / 115.87956 10 / 10 nm Jandakot

Altitude Profile

Advertisement - Login to hide

YPPH

Details ICAO YPPH (PER)
Name Perth Airport
Region Australia
Timezone Australia/Perth (UTC+8.0)
Stats Elevation 67 ft / 20 m (AMSL)
Location -31.939800° 115.967000°
Runways 2
Magnetic Variation 1.677° W

METAR

YPPH 181330Z 05007KT CAVOK 12/06 Q1024 NOSIG

Decode

TAF

TAF YPPH 181104Z 1812/1918 06010KT CAVOK

Decode

Departure Runways

ID Width Length Bearing (true/mag) Surface Threshold Overrun Markings Lighting
03 148 ft / 45 m 11,307 ft / 3,446 m 13.88° / 15.56° ASPHALT 0 ft / 0 m 302 ft / 92 m PREC-APP CENTERLINE EDGE THRESHOLD CALVERT TDZ REIL-OMNI
06 148 ft / 45 m 7,100 ft / 2,164 m 58.88° / 60.56° ASPHALT 0 ft / 0 m 217 ft / 66 m PREC-APP CENTERLINE EDGE THRESHOLD CALVERT TDZ REIL-OMNI
21 148 ft / 45 m 11,307 ft / 3,446 m 193.88° / 195.56° ASPHALT 0 ft / 0 m 210 ft / 64 m PREC-APP CENTERLINE EDGE THRESHOLD CALVERT TDZ REIL-OMNI
24 148 ft / 45 m 7,100 ft / 2,164 m 238.87° / 240.55° ASPHALT 0 ft / 0 m 220 ft / 67 m PREC-APP CENTERLINE EDGE THRESHOLD CALVERT TDZ REIL-OMNI

YPJT

Details ICAO YPJT (JAD)
Name Jandakot
Region Australia
Timezone Australia/Perth (UTC+8.0)
Stats Elevation 99 ft / 30 m (AMSL)
Location -32.098900° 115.880000°
Runways 3
Magnetic Variation 1.777° W

METAR

YPJT 181330Z AUTO 09004KT 9999 // NCD 08/08 Q1024 RF00.0/000.0

Decode

TAF

TAF YPJT 181032Z 1812/1918 06008KT CAVOK

Decode

Destination Runways

ID Width Length Bearing (true/mag) Surface Threshold Overrun Markings Lighting
06L 98 ft / 30 m 4,566 ft / 1,392 m 54.30° / 56.08° ASPHALT 387 ft / 118 m 0 ft / 0 m VISUAL
06R 62 ft / 19 m 3,767 ft / 1,148 m 54.37° / 56.15° ASPHALT 0 ft / 0 m 0 ft / 0 m VISUAL
12 98 ft / 30 m 3,242 ft / 988 m 114.50° / 116.28° ASPHALT 0 ft / 0 m 0 ft / 0 m VISUAL EDGE THRESHOLD
24L 62 ft / 19 m 3,767 ft / 1,148 m 234.37° / 236.15° ASPHALT 0 ft / 0 m 0 ft / 0 m VISUAL
24R 98 ft / 30 m 4,566 ft / 1,392 m 234.30° / 236.08° ASPHALT 482 ft / 147 m 0 ft / 0 m VISUAL
30 98 ft / 30 m 3,242 ft / 988 m 294.50° / 296.28° ASPHALT 0 ft / 0 m 0 ft / 0 m VISUAL EDGE THRESHOLD

Popular Alternatives